Japan Airlines Virtual Airport Information Service

Phoenix Sky Harbor International Airport

ICAO: KPHX Country: United States
Latitude: 33.4343 Longitude: -112.011
Latest Arrival : BAW289 (EGLL-KPHX) Latest Departure : AAL5159 (KPHX-KDFW)


WX CaptureLIVE
Data provided by noaa.gov | Fetched at 17:08:11

METAR : KPHX 041651Z 15004KT 10SM FEW250 18/02 A3009 RMK AO2 SLP178 T01830022 $

TAF : KPHX 041504Z 0415/0518 10004KT P6SM SKC FM042100 28005KT P6SM SKC FM050600 11004KT P6SM SKC


Runway Data for KPHX
Data provided by openaviationdata.com

Runway ID Mag Var Hdg Length Elevation Surface ILS Freq ILS Id ILS Slope
07L 12 78° 10287 ft 1135 ft Asphalt 111.5 IPHX 3
07R 12 78° 7791 ft 1135 ft Concrete 110.75 IAHA 3
8 12 78° 11477 ft 1135 ft Concrete 111.75 ISYQ 3
25L 12 258° 7791 ft 1135 ft Concrete 110.75 IRJG 3
25R 12 258° 10287 ft 1135 ft Asphalt -- -- --
26 12 258° 11477 ft 1135 ft Concrete 111.75 ICWJ 3

Phoenix Sky Harbor International Airport, United States
Use only for reference purposes



Not for navigational purposes.